Orange, California
Current Conditions -  °F | °C
As of 5:53 PM on Sunday 21 Dec 2014 (Local Time) from KSNA Reporting Station
Broken Clouds Broken Clouds  
Wind Chill: 64°   Ceiling: 25000
Heat Index: 64°   Visibility: 10mi
Dew Point: 56°   Wind: 0mph
Humidity: 75%   Direction: NA
Pressure: 30.04"   Gusts: NA
Location:  33.79°N, 117.85°W
Report Text: KSNA 220153Z 00000KT 10SM BKN250 18/13 A3004 RMK AO2 SLP173 T01780133
Loading
Personal Weather Stations






























Interactive Weather Map New forecast layout! Learn more

10-Day Weather Forecast

Advertisements
Track Severe Weather on mobile